Time;durP1;ratioP1;P1;durP2;ratioP2;P2;SDS_P1;SDS_P2;PMS_P1;PMS_P2;Temp;Humidity;BMP_temperature;BMP_pressure;BME280_temperature;BME280_humidity;BME280_pressure;Samples;Min_cycle;Max_cycle;Signal;HPM_P1;HPM_P2
2022/05/20 00:02:51;;;;;;;15.82;7.07;;;18.10;65.20;;;;;;5060817;28;20812;-69
2022/05/20 00:05:41;;;;;;;17.73;8.48;;;18.10;65.40;;;;;;5064480;28;20215;-69
2022/05/20 00:08:30;;;;;;;12.63;6.50;;;18.00;65.60;;;;;;5068752;28;20760;-70
2022/05/20 00:11:19;;;;;;;10.90;6.07;;;18.00;65.60;;;;;;5074829;28;21001;-69
2022/05/20 00:14:07;;;;;;;17.73;6.80;;;18.10;65.70;;;;;;5073672;28;20228;-69
2022/05/20 00:16:56;;;;;;;11.07;6.03;;;18.00;65.90;;;;;;5076956;28;20234;-70
2022/05/20 00:19:45;;;;;;;12.07;6.40;;;18.00;65.90;;;;;;5060201;28;20232;-70
2022/05/20 00:22:35;;;;;;;10.07;6.35;;;18.00;66.00;;;;;;5072382;28;20277;-69
2022/05/20 00:28:31;;;;;;;11.20;6.82;;;17.90;66.10;;;;;;5073870;28;20950;-70
2022/05/20 00:31:22;;;;;;;16.73;6.70;;;17.90;66.60;;;;;;5075452;28;20331;-69
2022/05/20 00:34:11;;;;;;;11.75;6.78;;;17.80;67.20;;;;;;5057528;28;20374;-69
2022/05/20 00:37:00;;;;;;;13.35;6.25;;;17.70;68.10;;;;;;5070438;28;20223;-68
2022/05/20 00:39:50;;;;;;;12.23;6.93;;;17.70;67.90;;;;;;5059684;28;20215;-69
2022/05/20 00:42:38;;;;;;;11.73;6.68;;;17.60;67.70;;;;;;5073689;28;20224;-68
2022/05/20 00:45:27;;;;;;;10.52;6.60;;;17.60;68.00;;;;;;5076654;28;20212;-69
2022/05/20 00:48:16;;;;;;;12.40;6.78;;;17.50;68.30;;;;;;5077013;28;20356;-69
2022/05/20 00:51:09;;;;;;;14.38;6.32;;;17.50;68.50;;;;;;5059143;28;20227;-69
2022/05/20 00:54:04;;;;;;;12.38;6.22;;;17.50;68.00;;;;;;5071749;28;20239;-69
2022/05/20 00:56:59;;;;;;;12.27;6.00;;;17.60;68.10;;;;;;5073785;28;20242;-69
2022/05/20 00:59:52;;;;;;;13.27;5.90;;;17.50;67.90;;;;;;5067528;28;20215;-68
2022/05/20 01:02:41;;;;;;;13.68;6.10;;;17.50;68.00;;;;;;5072573;28;20219;-69
2022/05/20 01:05:35;;;;;;;13.35;5.97;;;17.50;68.20;;;;;;5074015;28;20242;-68
2022/05/20 01:08:26;;;;;;;12.45;6.35;;;17.40;68.10;;;;;;5058832;28;20447;-68
2022/05/20 01:11:15;;;;;;;14.90;6.15;;;17.40;68.20;;;;;;5072511;28;20219;-67
2022/05/20 01:14:05;;;;;;;12.93;6.07;;;17.40;68.50;;;;;;5077674;28;20207;-67
2022/05/20 01:16:54;;;;;;;13.38;6.35;;;17.30;68.90;;;;;;5074168;28;20242;-69
2022/05/20 01:19:47;;;;;;;11.90;5.78;;;17.20;69.80;;;;;;5077274;28;20262;-69
2022/05/20 01:22:46;;;;;;;14.63;6.25;;;17.10;70.20;;;;;;5071367;28;20268;-68
2022/05/20 01:25:35;;;;;;;12.68;6.53;;;17.10;71.00;;;;;;5054682;28;20226;-68
2022/05/20 01:28:27;;;;;;;12.32;6.30;;;17.00;70.90;;;;;;5077849;28;20211;-69
2022/05/20 01:31:17;;;;;;;9.45;5.75;;;17.00;71.50;;;;;;5071201;28;20728;-71
2022/05/20 01:34:05;;;;;;;11.18;6.25;;;16.90;71.60;;;;;;5077929;28;20231;-70
2022/05/20 01:36:54;;;;;;;14.85;7.65;;;16.90;71.90;;;;;;5064387;28;20868;-70
2022/05/20 01:39:48;;;;;;;10.85;6.63;;;16.90;72.50;;;;;;5077954;28;20222;-69
2022/05/20 01:42:43;;;;;;;14.38;6.90;;;16.90;72.50;;;;;;5070317;28;20758;-69
2022/05/20 01:45:36;;;;;;;12.93;6.47;;;16.70;73.00;;;;;;5069930;28;20817;-68
2022/05/20 01:48:31;;;;;;;13.18;6.75;;;16.80;72.60;;;;;;5057746;28;20258;-69
2022/05/20 01:51:28;;;;;;;10.05;6.30;;;16.90;72.10;;;;;;5073532;28;20217;-69
2022/05/20 01:54:24;;;;;;;11.43;6.88;;;16.90;72.10;;;;;;5075700;28;20470;-67
2022/05/20 01:57:38;;;;;;;13.43;6.55;;;16.90;72.30;;;;;;5073980;28;20946;-69
2022/05/20 02:00:30;;;;;;;16.42;6.60;;;16.80;72.70;;;;;;5074741;28;20248;-68
2022/05/20 02:03:25;;;;;;;13.57;6.35;;;16.70;73.40;;;;;;5053692;28;20637;-68
2022/05/20 02:06:19;;;;;;;15.73;6.10;;;16.50;73.80;;;;;;5084341;28;20242;-70
2022/05/20 02:09:11;;;;;;;12.48;6.40;;;16.60;74.00;;;;;;5076227;28;20294;-70
2022/05/20 02:12:00;;;;;;;14.77;6.10;;;16.50;73.70;;;;;;5067995;28;20227;-70
2022/05/20 02:14:56;;;;;;;17.40;6.97;;;16.50;73.70;;;;;;5057453;28;20223;-69
2022/05/20 02:17:50;;;;;;;12.82;6.05;;;16.70;73.60;;;;;;5059228;28;20760;-69
2022/05/20 02:20:42;;;;;;;11.10;6.00;;;16.60;73.50;;;;;;5082164;28;20310;-69
2022/05/20 02:23:36;;;;;;;12.48;6.00;;;16.60;74.20;;;;;;5073010;28;20235;-68
2022/05/20 02:26:28;;;;;;;11.80;6.38;;;16.60;73.50;;;;;;5084576;28;20224;-68
2022/05/20 02:29:21;;;;;;;16.65;6.53;;;16.60;73.70;;;;;;5072341;28;20232;-69
2022/05/20 02:32:15;;;;;;;8.48;5.75;;;16.60;73.70;;;;;;5072917;28;20222;-68
2022/05/20 02:35:04;;;;;;;13.75;6.07;;;16.60;73.80;;;;;;5067764;28;20242;-68
2022/05/20 02:37:54;;;;;;;13.63;5.85;;;16.60;74.00;;;;;;5072033;28;21000;-69
2022/05/20 02:40:46;;;;;;;12.43;6.38;;;16.60;74.20;;;;;;5066993;28;20599;-70
2022/05/20 02:43:36;;;;;;;11.68;5.68;;;16.60;74.40;;;;;;5074503;28;20219;-70
2022/05/20 02:46:25;;;;;;;12.48;6.88;;;16.50;75.10;;;;;;5071678;28;20219;-67
2022/05/20 02:49:15;;;;;;;13.65;6.80;;;16.50;75.60;;;;;;5061332;28;20231;-67
2022/05/20 02:52:05;;;;;;;10.35;5.50;;;16.60;75.50;;;;;;5067292;28;20238;-69
2022/05/20 02:54:53;;;;;;;12.75;5.22;;;16.40;75.30;;;;;;5089240;28;20230;-67
2022/05/20 02:57:44;;;;;;;56.20;7.15;;;16.40;75.80;;;;;;5071148;28;20270;-68
2022/05/20 03:06:54;;;;;;;20.77;5.82;;;16.40;76.90;;;;;;5055065;28;20216;-69
2022/05/20 03:09:43;;;;;;;18.77;5.05;;;16.50;77.10;;;;;;5061263;28;20288;-69
2022/05/20 03:12:35;;;;;;;11.95;5.05;;;16.40;77.60;;;;;;5057853;28;20299;-69
2022/05/20 03:15:24;;;;;;;61.38;6.97;;;16.50;78.20;;;;;;5074206;28;20991;-69
2022/05/20 03:18:14;;;;;;;24.55;5.47;;;16.50;78.90;;;;;;5056276;28;21185;-69
2022/05/20 03:21:03;;;;;;;14.43;5.15;;;16.50;79.90;;;;;;5070902;28;20349;-68
2022/05/20 03:23:53;;;;;;;13.35;5.05;;;16.50;79.60;;;;;;5054738;28;20929;-69
2022/05/20 03:26:42;;;;;;;11.85;5.22;;;16.40;80.20;;;;;;5071112;28;20223;-70
2022/05/20 03:29:32;;;;;;;11.77;4.65;;;16.50;80.40;;;;;;5089272;28;20227;-67
2022/05/20 03:32:21;;;;;;;9.80;4.93;;;16.50;80.50;;;;;;5074826;28;20330;-69
2022/05/20 03:35:10;;;;;;;14.90;5.25;;;16.40;80.40;;;;;;5075406;28;20291;-68
2022/05/20 03:37:59;;;;;;;10.35;4.55;;;16.30;80.50;;;;;;5062758;28;20853;-69
2022/05/20 03:40:49;;;;;;;9.93;4.53;;;16.40;81.50;;;;;;5071210;28;20741;-69
2022/05/20 03:43:38;;;;;;;10.63;4.38;;;16.30;81.70;;;;;;5073491;28;20770;-70
2022/05/20 03:46:27;;;;;;;11.63;4.30;;;16.20;81.80;;;;;;5079148;28;20212;-68
2022/05/20 03:49:17;;;;;;;6.63;3.90;;;16.20;81.70;;;;;;5075127;28;20650;-69
2022/05/20 03:52:07;;;;;;;12.82;4.30;;;16.30;82.60;;;;;;5070663;28;20293;-69
2022/05/20 03:54:56;;;;;;;11.32;3.88;;;16.30;83.00;;;;;;5073348;28;20326;-69
2022/05/20 03:57:46;;;;;;;8.25;4.13;;;16.40;82.50;;;;;;5078000;28;20361;-69
2022/05/20 04:01:56;;;;;;;98.50;7.03;;;16.30;83.00;;;;;;5065869;28;20220;-69
2022/05/20 04:03:48;;;;;;;15.65;3.75;;;16.30;82.80;;;;;;5079315;28;20579;-68
2022/05/20 04:06:37;;;;;;;7.43;3.92;;;16.40;83.00;;;;;;5078304;28;20275;-69
2022/05/20 04:09:26;;;;;;;18.45;3.88;;;16.40;83.10;;;;;;5060626;28;20223;-69
2022/05/20 04:12:22;;;;;;;8.38;4.10;;;16.40;83.30;;;;;;5065637;28;20250;-70
2022/05/20 04:15:15;;;;;;;12.70;4.50;;;16.40;83.30;;;;;;5075940;28;20243;-69
2022/05/20 04:18:04;;;;;;;6.20;3.88;;;16.50;83.60;;;;;;5077185;28;20238;-69
2022/05/20 04:20:53;;;;;;;10.63;3.45;;;16.50;83.30;;;;;;5078972;28;20233;-69
2022/05/20 04:23:42;;;;;;;9.13;3.92;;;16.50;83.00;;;;;;5073021;28;20601;-69
2022/05/20 04:26:31;;;;;;;7.45;3.88;;;16.60;82.50;;;;;;5064318;28;20220;-69
2022/05/20 04:29:20;;;;;;;8.90;3.45;;;16.80;82.70;;;;;;5077674;28;20223;-68
2022/05/20 04:32:10;;;;;;;8.35;3.83;;;16.70;82.70;;;;;;5065688;28;20228;-69
2022/05/20 04:34:59;;;;;;;17.48;4.10;;;16.60;83.00;;;;;;5080412;28;20219;-68
2022/05/20 04:37:48;;;;;;;9.10;3.47;;;16.80;83.70;;;;;;5061505;28;20713;-69
2022/05/20 04:40:36;;;;;;;18.15;4.07;;;16.80;83.40;;;;;;5063278;28;20227;-70
2022/05/20 04:49:42;;;;;;;21.92;4.38;;;17.20;81.90;;;;;;5073375;28;20903;-71
2022/05/20 04:52:30;;;;;;;41.47;4.70;;;17.60;81.30;;;;;;5076908;28;20234;-68
2022/05/20 04:55:18;;;;;;;19.02;4.32;;;17.80;80.40;;;;;;5064966;28;20650;-69
2022/05/20 04:58:07;;;;;;;10.75;3.42;;;17.90;80.10;;;;;;5078468;28;20219;-68
2022/05/20 05:01:02;;;;;;;12.85;3.50;;;17.70;80.00;;;;;;5072929;28;20231;-69
2022/05/20 05:03:51;;;;;;;19.90;4.03;;;17.60;80.60;;;;;;5063566;28;20253;-69
2022/05/20 05:06:40;;;;;;;14.30;3.80;;;17.60;81.00;;;;;;5075239;28;20220;-71
2022/05/20 05:09:29;;;;;;;12.55;3.42;;;17.70;80.90;;;;;;5080032;28;20215;-69
2022/05/20 05:12:18;;;;;;;56.90;5.00;;;18.00;80.10;;;;;;5074484;28;20223;-71
2022/05/20 05:15:12;;;;;;;80.05;5.63;;;18.20;80.30;;;;;;5073866;28;20242;-68
2022/05/20 05:18:13;;;;;;;11.32;3.85;;;18.40;80.10;;;;;;5087158;28;20654;-71
2022/05/20 05:21:02;;;;;;;11.02;3.47;;;18.40;80.00;;;;;;5074962;28;20283;-69
2022/05/20 05:23:53;;;;;;;10.40;3.75;;;18.40;79.90;;;;;;5060405;28;20231;-70
2022/05/20 05:26:42;;;;;;;10.20;3.20;;;18.30;80.10;;;;;;5055910;28;20227;-70
2022/05/20 05:29:32;;;;;;;12.18;3.95;;;18.50;81.30;;;;;;5079662;28;20216;-69
2022/05/20 05:32:20;;;;;;;12.50;3.58;;;18.60;80.80;;;;;;5076535;28;20215;-69
2022/05/20 05:35:12;;;;;;;65.07;5.65;;;18.60;81.10;;;;;;5072336;28;20224;-69
2022/05/20 05:38:01;;;;;;;92.25;5.90;;;18.80;81.70;;;;;;5079122;28;20223;-68
2022/05/20 05:40:51;;;;;;;11.60;3.60;;;18.80;81.50;;;;;;5072934;28;20211;-69
2022/05/20 05:43:40;;;;;;;16.55;3.78;;;19.00;80.70;;;;;;5074297;28;20261;-67
2022/05/20 05:46:29;;;;;;;11.68;3.90;;;19.10;81.30;;;;;;5085251;27;20850;-70
2022/05/20 05:49:18;;;;;;;53.05;4.88;;;19.20;80.80;;;;;;5074107;28;20258;-69
2022/05/20 05:52:07;;;;;;;21.95;3.60;;;19.40;80.80;;;;;;5076687;28;20288;-69
2022/05/20 05:54:56;;;;;;;13.80;3.58;;;19.40;80.20;;;;;;5089898;28;20344;-69
2022/05/20 05:57:46;;;;;;;39.85;4.38;;;19.80;80.20;;;;;;5075336;28;20211;-69
2022/05/20 06:00:35;;;;;;;17.75;3.13;;;20.30;76.70;;;;;;5062546;28;20571;-69
2022/05/20 06:03:24;;;;;;;16.05;3.22;;;20.60;71.70;;;;;;5065105;28;20255;-69
2022/05/20 06:06:13;;;;;;;29.92;3.40;;;20.50;70.00;;;;;;5071215;28;20609;-68
2022/05/20 06:09:02;;;;;;;21.10;3.40;;;20.20;70.50;;;;;;5079321;28;20233;-69
2022/05/20 06:11:51;;;;;;;10.90;2.70;;;20.00;71.20;;;;;;5068089;28;20230;-68
2022/05/20 06:14:42;;;;;;;37.75;4.30;;;20.00;71.00;;;;;;5077549;28;20224;-70
2022/05/20 06:17:31;;;;;;;66.30;4.70;;;20.30;70.50;;;;;;5076117;28;20230;-69
2022/05/20 06:20:22;;;;;;;21.08;3.30;;;20.60;70.60;;;;;;5076455;28;21034;-67
2022/05/20 06:23:11;;;;;;;43.05;3.55;;;20.70;69.80;;;;;;5057243;28;20227;-69
2022/05/20 06:26:00;;;;;;;71.95;4.88;;;20.90;68.70;;;;;;5056203;28;20219;-69
2022/05/20 06:29:05;;;;;;;23.33;3.00;;;21.00;67.40;;;;;;5052284;28;20219;-70
2022/05/20 06:31:55;;;;;;;11.70;3.00;;;21.40;67.00;;;;;;5072740;28;20223;-69
2022/05/20 06:40:57;;;;;;;10.57;2.90;;;21.70;65.90;;;;;;5074145;28;20693;-69
2022/05/20 06:43:46;;;;;;;9.98;2.88;;;21.90;65.60;;;;;;5070984;28;20230;-67
2022/05/20 06:46:35;;;;;;;10.60;2.65;;;22.00;65.50;;;;;;5058590;28;20223;-69
2022/05/20 06:49:26;;;;;;;16.02;2.95;;;21.80;64.50;;;;;;5073261;28;20227;-70
2022/05/20 06:52:14;;;;;;;12.75;3.05;;;21.90;66.50;;;;;;5060363;28;20230;-70
2022/05/20 06:55:23;;;;;;;6.60;2.78;;;21.80;65.40;;;;;;5085802;28;20231;-70
2022/05/20 06:58:12;;;;;;;11.57;3.00;;;21.70;66.40;;;;;;5081491;28;20239;-68
2022/05/20 07:01:01;;;;;;;9.77;2.90;;;21.80;65.20;;;;;;5066462;28;20219;-69
2022/05/20 07:03:50;;;;;;;10.10;2.92;;;21.90;66.10;;;;;;5067251;28;20223;-70
2022/05/20 07:06:40;;;;;;;11.13;3.10;;;21.80;67.70;;;;;;5062046;28;20618;-69
2022/05/20 07:09:32;;;;;;;8.75;3.25;;;21.60;67.50;;;;;;5077209;28;20861;-70
2022/05/20 07:12:21;;;;;;;14.25;3.50;;;21.70;67.10;;;;;;5074045;28;20219;-71
2022/05/20 07:15:11;;;;;;;12.20;3.50;;;21.70;67.00;;;;;;5063683;28;20215;-71
2022/05/20 07:18:00;;;;;;;18.02;4.40;;;22.00;67.00;;;;;;5070361;28;20238;-70
2022/05/20 07:20:49;;;;;;;7.30;3.40;;;22.40;66.50;;;;;;5074707;28;20208;-70
2022/05/20 07:23:43;;;;;;;9.25;3.22;;;22.50;65.80;;;;;;5075601;28;20231;-69
2022/05/20 07:26:33;;;;;;;6.53;2.90;;;22.60;65.50;;;;;;5074799;28;20240;-70
2022/05/20 07:29:21;;;;;;;10.80;3.30;;;22.90;65.50;;;;;;5071577;28;20219;-69
2022/05/20 07:32:10;;;;;;;5.53;2.90;;;22.50;65.80;;;;;;5069965;28;20286;-69
2022/05/20 07:34:59;;;;;;;9.13;3.42;;;22.40;66.10;;;;;;5075324;28;20487;-69
2022/05/20 07:37:50;;;;;;;8.45;3.25;;;22.70;66.40;;;;;;5066093;28;20360;-69
2022/05/20 07:40:42;;;;;;;11.75;4.10;;;22.60;65.70;;;;;;5074215;28;20255;-67
2022/05/20 07:43:32;;;;;;;13.60;3.30;;;23.10;65.60;;;;;;5077230;28;20234;-68
2022/05/20 07:46:21;;;;;;;11.20;3.35;;;23.70;64.90;;;;;;5078070;28;20764;-69
2022/05/20 07:49:10;;;;;;;9.25;3.70;;;23.80;63.40;;;;;;5068539;28;20234;-68
2022/05/20 07:52:02;;;;;;;7.47;3.50;;;24.00;64.20;;;;;;5076136;28;20364;-68
2022/05/20 07:54:51;;;;;;;15.38;4.43;;;24.70;63.80;;;;;;5079608;28;20298;-69
2022/05/20 07:57:42;;;;;;;15.32;3.72;;;24.70;62.70;;;;;;5077204;28;20255;-70
2022/05/20 08:00:31;;;;;;;15.75;3.92;;;24.90;63.50;;;;;;5058697;28;20667;-72
2022/05/20 08:06:24;;;;;;;10.02;4.20;;;26.10;61.10;;;;;;5074505;28;20693;-71
2022/05/20 08:09:12;;;;;;;6.30;3.78;;;27.60;59.50;;;;;;5074384;28;20223;-72
2022/05/20 08:12:01;;;;;;;15.63;4.10;;;28.80;58.50;;;;;;5073955;28;20262;-73
2022/05/20 08:14:51;;;;;;;8.63;3.90;;;30.00;56.20;;;;;;5061179;28;20212;-72
2022/05/20 08:17:41;;;;;;;9.98;3.97;;;31.10;54.80;;;;;;5072802;28;20242;-72
2022/05/20 08:20:31;;;;;;;10.93;3.70;;;32.10;54.30;;;;;;5071000;28;20380;-70
2022/05/20 08:23:20;;;;;;;10.77;4.20;;;30.50;55.10;;;;;;5059038;28;20406;-73
2022/05/20 08:26:10;;;;;;;6.88;3.90;;;31.70;54.70;;;;;;5055332;28;20405;-72
2022/05/20 08:28:59;;;;;;;8.75;4.25;;;33.50;55.90;;;;;;5043787;28;20239;-72
2022/05/20 08:31:50;;;;;;;7.90;3.85;;;34.50;50.20;;;;;;5043594;28;20224;-72
2022/05/20 08:34:40;;;;;;;12.75;4.28;;;34.70;49.50;;;;;;5058902;28;20230;-71
2022/05/20 08:37:37;;;;;;;13.25;3.72;;;35.00;48.10;;;;;;5031912;28;20239;-71
2022/05/20 08:40:31;;;;;;;13.88;3.80;;;34.20;47.50;;;;;;5055787;28;20216;-70
2022/05/20 08:43:25;;;;;;;9.63;4.57;;;35.00;47.30;;;;;;5044352;28;20234;-71
2022/05/20 08:46:14;;;;;;;8.95;4.00;;;36.60;45.90;;;;;;5041058;28;20227;-73
2022/05/20 08:49:06;;;;;;;9.55;3.97;;;36.40;46.80;;;;;;5058198;28;20220;-71
2022/05/20 08:51:55;;;;;;;12.25;3.95;;;36.90;46.30;;;;;;5034276;28;20215;-72
2022/05/20 08:54:44;;;;;;;8.65;4.45;;;36.60;46.60;;;;;;5058859;28;20211;-70
2022/05/20 08:57:57;;;;;;;9.70;4.13;;;37.10;45.80;;;;;;5036821;28;20253;-69
2022/05/20 09:00:46;;;;;;;16.90;4.35;;;35.90;46.70;;;;;;5038492;28;20222;-69
2022/05/20 09:03:35;;;;;;;11.63;4.00;;;36.30;46.20;;;;;;5066428;28;20378;-69
2022/05/20 09:06:26;;;;;;;11.05;4.05;;;37.80;45.70;;;;;;5055583;28;20223;-69
2022/05/20 09:09:15;;;;;;;9.80;4.30;;;39.40;49.80;;;;;;5056359;28;20260;-71
2022/05/20 09:12:05;;;;;;;15.35;3.78;;;39.90;41.00;;;;;;5060539;28;20945;-72
2022/05/20 09:18:08;;;;;;;13.07;4.28;;;38.60;42.60;;;;;;5053851;28;20230;-72
2022/05/20 09:20:57;;;;;;;12.77;4.45;;;40.10;40.80;;;;;;5056058;28;20581;-72
2022/05/20 09:23:56;;;;;;;6.88;3.97;;;39.80;40.90;;;;;;5051797;28;20227;-72
2022/05/20 09:26:48;;;;;;;16.85;3.90;;;39.80;40.10;;;;;;5069239;28;20275;-72
2022/05/20 09:29:47;;;;;;;7.53;3.92;;;39.20;42.70;;;;;;5083668;28;21110;-69
2022/05/20 09:32:43;;;;;;;7.63;4.05;;;38.60;41.90;;;;;;5073592;28;20230;-71
2022/05/20 09:35:34;;;;;;;8.50;3.83;;;39.00;41.60;;;;;;5075484;28;20554;-70
2022/05/20 09:38:34;;;;;;;11.73;4.45;;;39.60;40.10;;;;;;5075641;28;20230;-71
2022/05/20 09:41:24;;;;;;;13.48;3.67;;;39.70;41.20;;;;;;5061138;28;20348;-72
2022/05/20 09:44:13;;;;;;;10.05;3.90;;;40.60;39.50;;;;;;5078029;28;20356;-71
2022/05/20 09:47:15;;;;;;;10.85;3.70;;;40.00;41.30;;;;;;5083375;28;20865;-71
2022/05/20 09:50:29;;;;;;;8.73;4.10;;;39.90;39.30;;;;;;5059931;28;20227;-71
2022/05/20 09:53:33;;;;;;;6.72;4.10;;;40.20;39.10;;;;;;5058599;28;20227;-72
2022/05/20 09:56:29;;;;;;;7.90;3.60;;;40.60;42.90;;;;;;5072303;28;20392;-73
2022/05/20 09:59:35;;;;;;;7.82;3.30;;;39.30;41.60;;;;;;5059937;28;20242;-72
2022/05/20 10:02:30;;;;;;;10.25;3.97;;;37.50;42.30;;;;;;5077108;28;20306;-72
2022/05/20 10:05:24;;;;;;;7.70;3.60;;;36.00;43.70;;;;;;5059848;28;20230;-71
2022/05/20 10:08:20;;;;;;;10.85;3.80;;;35.10;44.60;;;;;;5068871;28;20744;-71
2022/05/20 10:11:14;;;;;;;9.80;4.13;;;34.50;45.20;;;;;;5060413;28;20275;-70
2022/05/20 10:14:12;;;;;;;12.75;3.85;;;34.50;46.00;;;;;;5075148;28;20241;-73
2022/05/20 10:17:09;;;;;;;5.82;3.88;;;34.90;45.20;;;;;;5081929;28;20219;-73
2022/05/20 10:20:08;;;;;;;11.40;3.63;;;34.10;47.00;;;;;;5063362;28;20223;-71
2022/05/20 10:23:04;;;;;;;13.43;4.35;;;35.10;47.60;;;;;;5075051;28;20215;-71
2022/05/20 10:26:02;;;;;;;8.38;4.25;;;35.00;46.80;;;;;;5070465;28;20231;-72
2022/05/20 10:35:21;;;;;;;10.27;4.10;;;32.50;49.90;;;;;;5052711;28;20272;-71
2022/05/20 10:38:27;;;;;;;10.02;4.10;;;33.00;51.20;;;;;;5058279;28;20223;-70
2022/05/20 10:41:28;;;;;;;8.10;4.10;;;34.40;50.50;;;;;;5072174;28;20218;-72
2022/05/20 10:51:20;;;;;;;9.52;4.03;;;38.50;45.90;;;;;;5061864;28;20366;-72
2022/05/20 10:54:27;;;;;;;8.93;3.22;;;39.70;44.60;;;;;;5070101;28;20311;-72
2022/05/20 10:57:58;;;;;;;7.57;3.25;;;40.20;44.50;;;;;;5070951;28;20281;-71
2022/05/20 11:00:50;;;;;;;7.93;3.47;;;40.50;43.00;;;;;;5060736;28;20214;-71
2022/05/20 11:04:24;;;;;;;10.68;3.53;;;40.80;43.30;;;;;;5079738;28;20701;-73
2022/05/20 11:07:40;;;;;;;11.75;3.53;;;40.80;43.10;;;;;;5012643;28;20216;-77
2022/05/20 11:10:54;;;;;;;12.45;3.80;;;40.80;45.00;;;;;;5003772;28;20233;-74
2022/05/20 15:57:02;;;;;;;6.68;3.10;;;26.80;54.60;;;;;;5065120;27;20581;-73
2022/05/20 18:08:07;;;;;;;10.15;4.15;;;24.60;64.10;;;;;;5035637;28;20530;-77
2022/05/20 18:10:56;;;;;;;13.65;3.75;;;24.60;66.00;;;;;;5051666;28;20220;-77
2022/05/20 18:13:46;;;;;;;5.35;3.38;;;24.50;67.60;;;;;;5053617;28;20212;-78
2022/05/20 18:16:36;;;;;;;5.55;3.50;;;24.50;67.30;;;;;;5056605;28;20313;-77
2022/05/20 18:19:24;;;;;;;6.78;3.47;;;24.50;68.20;;;;;;5045393;28;20252;-77
2022/05/20 18:22:18;;;;;;;5.13;3.47;;;24.40;70.30;;;;;;5049919;28;20220;-77
2022/05/20 18:25:10;;;;;;;5.65;4.00;;;24.30;69.60;;;;;;5050455;28;20274;-76
2022/05/20 18:27:59;;;;;;;5.10;4.00;;;24.30;68.70;;;;;;5048948;28;20292;-72
2022/05/20 18:30:47;;;;;;;6.15;4.30;;;24.10;68.00;;;;;;5055902;28;20208;-75
2022/05/20 18:33:36;;;;;;;7.78;3.90;;;24.10;71.40;;;;;;5053725;28;20220;-74
2022/05/20 18:39:31;;;;;;;6.35;4.00;;;24.10;70.60;;;;;;5045447;28;20319;-76
2022/05/20 18:42:21;;;;;;;5.68;3.92;;;24.00;69.30;;;;;;5048548;28;20224;-78
2022/05/20 18:45:11;;;;;;;7.28;4.15;;;24.00;70.30;;;;;;5049956;28;20216;-75
2022/05/20 18:48:00;;;;;;;6.25;4.35;;;24.00;68.90;;;;;;5054940;28;20737;-75
2022/05/20 18:50:48;;;;;;;6.85;4.00;;;23.80;70.90;;;;;;5052581;28;20221;-73
2022/05/20 18:53:37;;;;;;;7.82;4.10;;;23.90;72.50;;;;;;5048691;28;20583;-73
2022/05/20 18:56:26;;;;;;;8.63;4.28;;;23.80;70.00;;;;;;5049568;28;20212;-73
2022/05/20 18:59:16;;;;;;;8.02;3.88;;;23.80;69.60;;;;;;5051428;28;20221;-74
2022/05/20 19:02:05;;;;;;;7.65;4.00;;;23.60;71.60;;;;;;5055600;28;20231;-74
2022/05/20 19:04:55;;;;;;;9.93;4.20;;;23.70;70.70;;;;;;5049943;28;20228;-74
2022/05/20 19:07:44;;;;;;;8.43;4.53;;;23.60;71.30;;;;;;5067762;28;20234;-74
2022/05/20 19:10:34;;;;;;;11.02;5.28;;;23.50;75.10;;;;;;5070038;28;20316;-74
2022/05/20 19:13:23;;;;;;;10.23;4.95;;;23.50;78.30;;;;;;5070069;28;20220;-73
2022/05/20 19:16:14;;;;;;;6.57;4.40;;;23.50;80.60;;;;;;5068674;28;20230;-74
2022/05/20 19:19:03;;;;;;;7.68;4.63;;;23.40;79.60;;;;;;5048069;28;20591;-73
2022/05/20 19:21:56;;;;;;;6.72;4.30;;;23.40;79.00;;;;;;5054754;28;21422;-74
2022/05/20 19:24:44;;;;;;;7.43;4.30;;;23.30;82.40;;;;;;5045964;28;20230;-73
2022/05/20 19:27:34;;;;;;;7.40;4.35;;;23.30;78.50;;;;;;5033646;28;20229;-74
2022/05/20 19:30:22;;;;;;;8.70;4.88;;;23.20;79.80;;;;;;5027291;28;20223;-73
2022/05/20 19:33:13;;;;;;;11.05;4.80;;;23.20;79.00;;;;;;5054853;28;20347;-74
2022/05/20 19:36:01;;;;;;;6.82;4.57;;;23.20;79.90;;;;;;5043318;28;21040;-73
2022/05/20 19:38:51;;;;;;;7.43;4.75;;;23.10;78.50;;;;;;5040817;28;20237;-73
2022/05/20 19:41:40;;;;;;;7.00;4.85;;;23.00;79.00;;;;;;5042851;28;20228;-74
2022/05/20 19:44:29;;;;;;;9.38;4.70;;;22.90;81.40;;;;;;5057395;28;20228;-73
2022/05/20 19:47:18;;;;;;;6.85;4.53;;;23.00;77.90;;;;;;5053350;28;20224;-73
2022/05/20 19:50:11;;;;;;;10.43;4.97;;;22.90;78.50;;;;;;5042767;28;20701;-75
2022/05/20 19:53:00;;;;;;;11.85;5.15;;;22.90;78.90;;;;;;5040443;28;20228;-73
2022/05/20 19:55:50;;;;;;;7.43;4.80;;;22.80;78.40;;;;;;5053577;28;20235;-73
2022/05/20 20:01:47;;;;;;;8.77;4.93;;;22.70;78.60;;;;;;5034815;28;20216;-74
2022/05/20 20:04:36;;;;;;;10.57;5.32;;;22.70;78.10;;;;;;5057503;28;21283;-74
2022/05/20 20:07:26;;;;;;;11.57;5.30;;;22.60;78.90;;;;;;5052335;28;20239;-74
2022/05/20 20:10:15;;;;;;;10.27;5.50;;;22.50;78.90;;;;;;5054818;28;20228;-74
2022/05/20 20:13:06;;;;;;;10.07;5.35;;;22.50;78.80;;;;;;5043074;28;20232;-74
2022/05/20 20:16:06;;;;;;;11.15;5.50;;;22.40;79.70;;;;;;5040412;28;20246;-74
2022/05/20 20:18:55;;;;;;;8.18;5.18;;;22.40;79.60;;;;;;5055836;28;20224;-73
2022/05/20 20:28:19;;;;;;;11.80;5.40;;;22.30;80.60;;;;;;5044633;28;20252;-74
2022/05/20 20:31:10;;;;;;;229.38;12.82;;;22.20;80.70;;;;;;5039202;28;20221;-73
2022/05/20 20:33:59;;;;;;;159.20;10.93;;;22.10;81.40;;;;;;5054980;28;20263;-73
2022/05/20 20:36:48;;;;;;;20.90;6.03;;;22.10;81.90;;;;;;5054397;28;20639;-73
2022/05/20 20:39:37;;;;;;;15.27;6.53;;;22.00;82.70;;;;;;5053545;28;20223;-74
2022/05/20 20:42:27;;;;;;;15.63;7.00;;;22.00;83.50;;;;;;5033737;28;20221;-73
2022/05/20 20:45:20;;;;;;;14.73;6.45;;;21.80;85.80;;;;;;5051088;28;20215;-74
2022/05/20 20:48:09;;;;;;;15.70;6.60;;;21.80;86.30;;;;;;5051876;28;20251;-74
2022/05/20 20:50:58;;;;;;;13.07;6.65;;;21.80;86.00;;;;;;5057281;28;22182;-73
2022/05/20 20:53:47;;;;;;;13.93;6.45;;;21.80;86.00;;;;;;5038211;28;20231;-73
2022/05/20 20:56:35;;;;;;;15.25;6.65;;;21.70;86.70;;;;;;5055564;28;20595;-73
2022/05/20 20:59:26;;;;;;;52.25;7.75;;;21.60;88.00;;;;;;5055401;28;20215;-74
2022/05/20 21:02:15;;;;;;;103.32;8.93;;;21.50;88.50;;;;;;5035418;28;20244;-73
2022/05/20 21:05:04;;;;;;;34.03;6.93;;;21.50;89.20;;;;;;5046494;28;20220;-73
2022/05/20 21:07:55;;;;;;;16.55;6.78;;;21.50;88.60;;;;;;5046758;28;20216;-73
2022/05/20 21:10:45;;;;;;;18.05;5.93;;;21.50;88.80;;;;;;5044561;28;20729;-73
2022/05/20 21:13:34;;;;;;;13.98;6.45;;;21.50;88.90;;;;;;5037428;28;20213;-75
2022/05/20 21:16:24;;;;;;;17.48;7.03;;;21.40;90.30;;;;;;5043772;28;20247;-72
2022/05/20 21:19:13;;;;;;;22.35;7.30;;;21.30;90.70;;;;;;5041577;28;20229;-74
2022/05/20 21:22:01;;;;;;;14.30;7.18;;;21.20;91.00;;;;;;5027299;28;20220;-74
2022/05/20 21:24:51;;;;;;;19.52;7.40;;;21.20;91.20;;;;;;5040055;28;20221;-74
2022/05/20 21:28:01;;;;;;;11.02;7.10;;;21.20;91.30;;;;;;5037528;28;20219;-74
2022/05/20 21:30:50;;;;;;;11.85;6.97;;;21.20;91.30;;;;;;5042454;28;20224;-74
2022/05/20 21:33:41;;;;;;;14.75;6.90;;;21.20;91.30;;;;;;5056520;28;20249;-74
2022/05/20 21:36:30;;;;;;;17.25;7.45;;;21.20;91.40;;;;;;5044838;28;20393;-75
2022/05/20 21:39:19;;;;;;;13.18;7.20;;;21.20;91.90;;;;;;5042211;28;20568;-74
2022/05/20 21:42:08;;;;;;;14.57;7.03;;;21.20;91.70;;;;;;5057460;28;20228;-74
2022/05/20 21:44:59;;;;;;;11.07;6.57;;;21.10;92.50;;;;;;5055024;28;20320;-73
2022/05/20 21:47:48;;;;;;;12.65;6.50;;;21.10;92.60;;;;;;5056542;28;20220;-74
2022/05/20 21:50:44;;;;;;;14.20;6.57;;;21.10;92.90;;;;;;5035436;28;20710;-73
2022/05/20 21:53:33;;;;;;;17.13;7.10;;;21.10;92.90;;;;;;5017590;28;20263;-73
2022/05/20 21:56:22;;;;;;;11.55;6.22;;;21.00;93.40;;;;;;5023387;28;20695;-73
2022/05/20 21:59:12;;;;;;;10.95;6.43;;;21.00;93.70;;;;;;5036371;28;20231;-74
2022/05/20 22:11:24;;;;;;;12.88;6.60;;;20.80;94.60;;;;;;5035503;28;20702;-73
2022/05/20 22:14:13;;;;;;;13.70;6.82;;;20.70;95.10;;;;;;5048074;28;20221;-73
2022/05/20 22:17:02;;;;;;;9.82;6.40;;;20.70;95.30;;;;;;5032825;28;20227;-74
2022/05/20 22:19:51;;;;;;;15.55;6.45;;;20.70;96.80;;;;;;5039090;28;20881;-75
2022/05/20 22:22:40;;;;;;;15.30;6.72;;;20.70;96.20;;;;;;5050072;28;20231;-74
2022/05/20 22:25:30;;;;;;;10.65;6.68;;;20.50;97.50;;;;;;5045061;28;20762;-75
2022/05/20 22:28:39;;;;;;;14.75;7.30;;;20.50;97.30;;;;;;5025317;28;20227;-74
2022/05/20 22:31:28;;;;;;;11.20;6.35;;;20.50;97.60;;;;;;5052992;28;20231;-74
2022/05/20 22:34:20;;;;;;;23.63;7.10;;;20.60;97.90;;;;;;5041588;28;20220;-74
2022/05/20 22:37:11;;;;;;;11.30;6.85;;;20.60;98.50;;;;;;5056463;28;20231;-75
2022/05/20 22:40:00;;;;;;;18.30;6.72;;;20.60;97.90;;;;;;5037686;28;20224;-74
2022/05/20 22:42:51;;;;;;;15.65;6.70;;;20.50;98.20;;;;;;5053057;28;20224;-74